Florence, Nebraska
Current Conditions -  °F | °C
As of 3:52 PM on Monday 22 Dec 2014 (Local Time) from KOMA Reporting Station
Light Rain Light Rain  
Wind Chill: 43°   Ceiling: 1100
Heat Index: 43°   Visibility: 4mi
Dew Point: 42°   Wind: 0mph
Humidity: 97%   Direction: NA
Pressure: 29.42"   Gusts: NA
Location:  41.3574°N, 96.0026°W
Report Text: KOMA 222152Z 00000KT 4SM -RA BR SCT006 BKN011 OVC019 06/06 A2942 RMK AO2 SLP965 P0005 T00610056
Loading
Personal Weather Stations






























Interactive Weather Map New forecast layout! Learn more

10-Day Weather Forecast

Advertisements
Track Severe Weather on mobile